createdAt,value
2017-09-26T00:00:01.990Z,0
2017-09-26T00:01:03.382Z,0
2017-09-26T00:02:04.771Z,0
2017-09-26T00:03:06.161Z,0
2017-09-26T00:04:07.553Z,0
2017-09-26T00:05:08.941Z,0
2017-09-26T00:06:10.329Z,0
2017-09-26T00:07:11.719Z,0
2017-09-26T00:08:13.109Z,0
2017-09-26T00:09:14.511Z,0
2017-09-26T00:10:15.900Z,0
2017-09-26T00:11:17.292Z,0
2017-09-26T00:12:18.680Z,0
2017-09-26T00:13:20.068Z,0
2017-09-26T00:14:21.460Z,0
2017-09-26T00:15:22.849Z,0
2017-09-26T00:16:24.241Z,0
2017-09-26T00:17:25.633Z,0
2017-09-26T00:18:27.022Z,0
2017-09-26T00:19:28.411Z,0
2017-09-26T00:20:29.801Z,0
2017-09-26T00:21:31.192Z,0
2017-09-26T00:22:32.584Z,0
2017-09-26T00:23:33.976Z,0
2017-09-26T00:24:35.366Z,0
2017-09-26T00:25:36.759Z,0
2017-09-26T00:26:38.148Z,0
2017-09-26T00:27:39.541Z,0
2017-09-26T00:28:40.930Z,0
2017-09-26T00:29:42.322Z,0
2017-09-26T00:30:43.717Z,0
2017-09-26T00:31:45.108Z,0
2017-09-26T00:32:46.499Z,0
2017-09-26T00:33:47.889Z,0
2017-09-26T00:34:49.279Z,0
2017-09-26T00:35:50.671Z,0
2017-09-26T00:36:52.061Z,0
2017-09-26T00:37:53.511Z,0
2017-09-26T00:38:54.909Z,0
2017-09-26T00:39:56.302Z,0
2017-09-26T00:40:57.691Z,0
2017-09-26T00:41:59.078Z,0
2017-09-26T00:43:00.470Z,0
2017-09-26T00:44:01.861Z,0
2017-09-26T00:45:03.251Z,0
2017-09-26T00:46:04.641Z,0
2017-09-26T00:47:06.033Z,0
2017-09-26T00:48:07.424Z,0
2017-09-26T00:49:08.809Z,0
2017-09-26T00:50:10.200Z,0
2017-09-26T00:51:11.590Z,0
2017-09-26T00:52:12.980Z,0
2017-09-26T00:53:14.372Z,0
2017-09-26T00:54:15.763Z,0
2017-09-26T00:55:17.152Z,0
2017-09-26T00:56:18.542Z,0
2017-09-26T00:57:19.926Z,0
2017-09-26T00:58:21.317Z,0
2017-09-26T00:59:22.707Z,0
2017-09-26T01:00:24.100Z,0
2017-09-26T01:01:25.490Z,0
2017-09-26T01:02:26.879Z,0
2017-09-26T01:03:28.264Z,0
2017-09-26T01:04:29.654Z,0
2017-09-26T01:05:31.045Z,0
2017-09-26T01:06:32.437Z,0
2017-09-26T01:07:33.827Z,0
2017-09-26T01:08:35.221Z,0
2017-09-26T01:09:36.606Z,0
2017-09-26T01:10:37.999Z,0
2017-09-26T01:11:39.391Z,0
2017-09-26T01:12:40.782Z,0
2017-09-26T01:13:42.172Z,0
2017-09-26T01:14:43.568Z,0
2017-09-26T01:15:44.954Z,0
2017-09-26T01:16:46.341Z,0
2017-09-26T01:17:47.731Z,0
2017-09-26T01:18:49.115Z,0
2017-09-26T01:19:50.507Z,0
2017-09-26T01:20:51.897Z,0
2017-09-26T01:21:53.289Z,0
2017-09-26T01:22:54.682Z,0
2017-09-26T01:23:56.071Z,0
2017-09-26T01:24:57.458Z,0
2017-09-26T01:25:58.847Z,0
2017-09-26T01:27:00.239Z,0
2017-09-26T01:28:01.630Z,0
2017-09-26T01:29:03.024Z,0
2017-09-26T01:30:04.410Z,0
2017-09-26T01:31:05.800Z,0
2017-09-26T01:32:07.188Z,0
2017-09-26T01:33:08.578Z,0
2017-09-26T01:34:09.966Z,0
2017-09-26T01:35:11.361Z,0
2017-09-26T01:36:12.756Z,0
2017-09-26T01:37:14.146Z,0
2017-09-26T01:38:15.536Z,0
2017-09-26T01:39:16.925Z,0
2017-09-26T01:40:18.313Z,0
2017-09-26T01:41:19.702Z,0
2017-09-26T01:42:21.095Z,0
2017-09-26T01:43:22.485Z,0
2017-09-26T01:44:23.877Z,0
2017-09-26T01:45:25.265Z,0
2017-09-26T01:46:26.655Z,0
2017-09-26T01:47:28.043Z,0
2017-09-26T01:48:29.434Z,0
2017-09-26T01:49:30.825Z,0
2017-09-26T01:50:32.216Z,0
2017-09-26T01:51:33.609Z,0
2017-09-26T01:52:34.995Z,0
2017-09-26T01:53:36.384Z,0
2017-09-26T01:54:37.773Z,0
2017-09-26T01:55:39.162Z,0
2017-09-26T01:56:40.553Z,0
2017-09-26T01:57:41.944Z,0
2017-09-26T01:58:43.336Z,0
2017-09-26T01:59:44.726Z,0
2017-09-26T02:00:46.109Z,0
2017-09-26T02:01:47.499Z,0
2017-09-26T02:02:48.890Z,0
2017-09-26T02:03:50.282Z,0
2017-09-26T02:04:51.675Z,0
2017-09-26T02:05:53.065Z,0
2017-09-26T02:06:54.456Z,0
2017-09-26T02:07:55.843Z,0
2017-09-26T02:08:57.233Z,0
2017-09-26T02:09:58.623Z,0
2017-09-26T02:11:00.010Z,0
2017-09-26T02:12:01.402Z,0
2017-09-26T02:13:02.792Z,0
2017-09-26T02:14:04.180Z,0
2017-09-26T02:15:05.570Z,0
2017-09-26T02:16:06.961Z,0
2017-09-26T02:17:08.404Z,0
2017-09-26T02:18:09.796Z,0
2017-09-26T02:19:11.187Z,0
2017-09-26T02:20:12.580Z,0
2017-09-26T02:21:13.967Z,0
2017-09-26T02:22:15.356Z,0
2017-09-26T02:23:16.744Z,0
2017-09-26T02:24:18.137Z,0
2017-09-26T02:25:19.524Z,0
2017-09-26T02:26:20.917Z,0
2017-09-26T02:27:22.308Z,0
2017-09-26T02:28:23.694Z,0
2017-09-26T02:29:25.083Z,0
2017-09-26T02:30:26.471Z,0
2017-09-26T02:31:27.861Z,0
2017-09-26T02:32:29.252Z,0
2017-09-26T02:33:30.648Z,0
2017-09-26T02:34:32.038Z,0
2017-09-26T02:35:33.422Z,0
2017-09-26T02:36:34.816Z,0
2017-09-26T02:37:36.202Z,0
2017-09-26T02:38:37.598Z,0
2017-09-26T02:39:38.982Z,0
2017-09-26T02:40:40.372Z,0
2017-09-26T02:41:41.763Z,0
2017-09-26T02:42:43.150Z,0
2017-09-26T02:43:44.541Z,0
2017-09-26T02:44:45.930Z,0
2017-09-26T02:45:47.320Z,0
2017-09-26T02:46:48.709Z,0
2017-09-26T02:47:50.100Z,0
2017-09-26T02:48:51.490Z,0
2017-09-26T02:49:52.879Z,0
2017-09-26T02:50:54.268Z,0
2017-09-26T02:51:55.658Z,0
2017-09-26T02:52:57.047Z,0
2017-09-26T02:53:58.439Z,0
2017-09-26T02:54:59.830Z,0
2017-09-26T02:56:01.229Z,0
2017-09-26T02:57:02.616Z,0
2017-09-26T02:58:04.008Z,0
2017-09-26T02:59:05.394Z,0
2017-09-26T03:00:06.786Z,0
2017-09-26T03:01:08.176Z,0
2017-09-26T03:02:09.566Z,0
2017-09-26T03:03:10.958Z,0
2017-09-26T03:04:12.346Z,0
2017-09-26T03:05:13.739Z,0
2017-09-26T03:06:15.127Z,0
2017-09-26T03:07:16.518Z,0
2017-09-26T03:08:17.953Z,0
2017-09-26T03:09:19.344Z,0
2017-09-26T03:10:20.736Z,0
2017-09-26T03:11:22.125Z,0
2017-09-26T03:12:23.515Z,0
2017-09-26T03:13:24.910Z,0
2017-09-26T03:14:26.295Z,0
2017-09-26T03:15:27.685Z,0
2017-09-26T03:16:29.074Z,0
2017-09-26T03:17:30.467Z,0
2017-09-26T03:18:31.855Z,0
2017-09-26T03:19:33.244Z,0
2017-09-26T03:20:34.632Z,0
2017-09-26T03:21:36.020Z,0
2017-09-26T03:22:37.412Z,0
2017-09-26T03:23:38.807Z,0
2017-09-26T03:24:40.195Z,0
2017-09-26T03:25:41.585Z,0
2017-09-26T03:26:42.975Z,0
2017-09-26T03:27:44.366Z,0
2017-09-26T03:28:45.757Z,0
2017-09-26T03:29:47.145Z,0
2017-09-26T03:30:48.537Z,0
2017-09-26T03:31:49.925Z,0
2017-09-26T03:32:51.315Z,0
2017-09-26T03:33:52.705Z,0
2017-09-26T03:34:54.095Z,0
2017-09-26T03:35:55.486Z,0
2017-09-26T03:36:56.877Z,0
2017-09-26T03:37:58.268Z,0
2017-09-26T03:38:59.658Z,0
2017-09-26T03:40:01.048Z,0
2017-09-26T03:41:02.438Z,0
2017-09-26T03:42:03.823Z,0
2017-09-26T03:43:05.214Z,0
2017-09-26T03:44:06.605Z,0
2017-09-26T03:45:07.995Z,0
2017-09-26T03:46:09.384Z,0
2017-09-26T03:47:10.778Z,0
2017-09-26T03:48:12.167Z,0
2017-09-26T03:49:13.556Z,0
2017-09-26T03:50:14.947Z,0
2017-09-26T03:51:16.336Z,0
2017-09-26T03:52:17.724Z,0
2017-09-26T03:53:19.116Z,0
2017-09-26T03:54:20.502Z,0
2017-09-26T03:55:21.890Z,0
2017-09-26T03:56:23.327Z,0
2017-09-26T03:57:24.717Z,0
2017-09-26T03:58:26.106Z,0
2017-09-26T03:59:27.500Z,0
2017-09-26T04:00:28.886Z,0
2017-09-26T04:01:30.272Z,0
2017-09-26T04:02:31.660Z,0
2017-09-26T04:03:33.045Z,0
2017-09-26T04:04:34.439Z,0
2017-09-26T04:05:35.826Z,0
2017-09-26T04:06:37.229Z,0
2017-09-26T04:07:38.609Z,0
2017-09-26T04:08:40.002Z,0
2017-09-26T04:09:41.388Z,0
2017-09-26T04:10:42.775Z,0
2017-09-26T04:11:44.166Z,0
2017-09-26T04:12:45.557Z,0
2017-09-26T04:13:46.947Z,0
2017-09-26T04:14:48.303Z,0
2017-09-26T04:15:49.693Z,0
2017-09-26T04:16:51.079Z,0
2017-09-26T04:17:52.469Z,0
2017-09-26T04:18:53.859Z,0
2017-09-26T04:19:55.249Z,0
2017-09-26T04:20:56.638Z,0
2017-09-26T04:21:58.027Z,0
2017-09-26T04:22:59.418Z,0
2017-09-26T04:24:00.807Z,0
2017-09-26T04:25:02.198Z,0
2017-09-26T04:26:03.700Z,0
2017-09-26T04:27:05.084Z,0
2017-09-26T04:28:06.475Z,0
2017-09-26T04:29:07.866Z,0
2017-09-26T04:30:09.254Z,0
2017-09-26T04:31:10.652Z,0
2017-09-26T04:32:12.042Z,0
2017-09-26T04:33:13.394Z,0
2017-09-26T04:34:14.785Z,0
2017-09-26T04:35:16.192Z,0
2017-09-26T04:36:17.584Z,0
2017-09-26T04:37:18.971Z,0
2017-09-26T04:38:20.358Z,0
2017-09-26T04:39:21.743Z,0
2017-09-26T04:40:23.132Z,0
2017-09-26T04:41:24.523Z,0
2017-09-26T04:42:25.914Z,0
2017-09-26T04:43:27.304Z,0
2017-09-26T04:44:28.689Z,0
2017-09-26T04:45:30.077Z,0
2017-09-26T04:46:31.468Z,0
2017-09-26T04:47:32.857Z,0
2017-09-26T04:48:34.245Z,0
2017-09-26T04:49:35.633Z,0
2017-09-26T04:50:37.025Z,0
2017-09-26T04:51:38.414Z,0
2017-09-26T04:52:39.801Z,0
2017-09-26T04:53:41.190Z,0
2017-09-26T04:54:42.577Z,0
2017-09-26T04:55:43.966Z,0
2017-09-26T04:56:45.360Z,0
2017-09-26T04:57:46.749Z,0
2017-09-26T04:58:48.134Z,0
2017-09-26T04:59:49.523Z,0
2017-09-26T05:00:50.914Z,0
2017-09-26T05:01:52.303Z,0
2017-09-26T05:02:53.691Z,4
2017-09-26T05:03:55.078Z,4
2017-09-26T05:04:56.473Z,4
2017-09-26T05:05:57.859Z,0
2017-09-26T05:06:59.248Z,0
2017-09-26T05:08:00.641Z,0
2017-09-26T05:09:02.034Z,4
2017-09-26T05:10:03.415Z,4
2017-09-26T05:11:04.809Z,4
2017-09-26T05:12:06.199Z,4
2017-09-26T05:13:07.588Z,4
2017-09-26T05:14:08.976Z,4
2017-09-26T05:15:10.364Z,4
2017-09-26T05:16:11.752Z,8
2017-09-26T05:17:13.141Z,8
2017-09-26T05:18:14.532Z,8
2017-09-26T05:19:15.922Z,12
2017-09-26T05:20:17.312Z,16
2017-09-26T05:21:18.702Z,16
2017-09-26T05:22:20.091Z,16
2017-09-26T05:23:21.484Z,20
2017-09-26T05:24:22.875Z,20
2017-09-26T05:25:24.269Z,24
2017-09-26T05:26:25.660Z,28
2017-09-26T05:27:27.049Z,32
2017-09-26T05:28:28.438Z,32
2017-09-26T05:29:29.831Z,36
2017-09-26T05:30:31.221Z,40
2017-09-26T05:31:32.613Z,44
2017-09-26T05:32:34.006Z,48
2017-09-26T05:33:35.398Z,52
2017-09-26T05:34:36.787Z,56
2017-09-26T05:35:38.224Z,60
2017-09-26T05:36:39.615Z,64
2017-09-26T05:37:41.007Z,68
2017-09-26T05:38:42.427Z,72
2017-09-26T05:39:43.791Z,76
2017-09-26T05:40:45.182Z,80
2017-09-26T05:41:46.571Z,84
2017-09-26T05:42:47.960Z,92
2017-09-26T05:43:49.351Z,96
2017-09-26T05:44:50.747Z,104
2017-09-26T05:45:52.138Z,108
2017-09-26T05:46:53.534Z,120
2017-09-26T05:47:54.930Z,124
2017-09-26T05:48:56.466Z,136
2017-09-26T05:49:57.857Z,140
2017-09-26T05:50:59.260Z,148
2017-09-26T05:52:00.663Z,152
2017-09-26T05:53:02.056Z,160
2017-09-26T05:54:03.450Z,168
2017-09-26T05:55:04.890Z,176
2017-09-26T05:56:06.286Z,180
2017-09-26T05:57:07.679Z,192
2017-09-26T05:58:09.069Z,200
2017-09-26T05:59:10.464Z,208
2017-09-26T06:00:11.856Z,216
2017-09-26T06:01:13.251Z,224
2017-09-26T06:02:14.645Z,228
2017-09-26T06:03:16.034Z,236
2017-09-26T06:04:17.427Z,248
2017-09-26T06:05:18.818Z,260
2017-09-26T06:06:20.212Z,276
2017-09-26T06:07:21.606Z,292
2017-09-26T06:08:22.997Z,300
2017-09-26T06:09:24.390Z,316
2017-09-26T06:10:25.782Z,324
2017-09-26T06:11:27.175Z,340
2017-09-26T06:12:28.566Z,348
2017-09-26T06:13:29.959Z,360
2017-09-26T06:14:31.353Z,368
2017-09-26T06:15:32.752Z,380
2017-09-26T06:16:34.139Z,396
2017-09-26T06:17:35.534Z,416
2017-09-26T06:18:36.924Z,428
2017-09-26T06:19:38.315Z,436
2017-09-26T06:20:39.710Z,444
2017-09-26T06:21:41.102Z,452
2017-09-26T06:22:42.496Z,464
2017-09-26T06:23:43.897Z,480
2017-09-26T06:24:45.286Z,488
2017-09-26T06:25:46.680Z,496
2017-09-26T06:26:48.073Z,504
2017-09-26T06:27:49.467Z,508
2017-09-26T06:28:50.861Z,520
2017-09-26T06:29:52.254Z,532
2017-09-26T06:30:53.650Z,544
2017-09-26T06:31:55.040Z,548
2017-09-26T06:32:56.435Z,548
2017-09-26T06:33:57.828Z,556
2017-09-26T06:34:59.220Z,568
2017-09-26T06:36:00.991Z,576
2017-09-26T06:37:04.776Z,584
2017-09-26T06:38:06.168Z,592
2017-09-26T06:39:07.561Z,604
2017-09-26T06:40:08.952Z,616
2017-09-26T06:41:10.344Z,628
2017-09-26T06:42:11.736Z,640
2017-09-26T06:43:13.129Z,648
2017-09-26T06:44:14.523Z,660
2017-09-26T06:45:15.917Z,676
2017-09-26T06:46:17.307Z,696
2017-09-26T06:47:18.698Z,712
2017-09-26T06:48:20.089Z,720
2017-09-26T06:49:21.483Z,732
2017-09-26T06:50:22.877Z,744
2017-09-26T06:51:24.269Z,764
2017-09-26T06:52:25.666Z,780
2017-09-26T06:53:27.058Z,796
2017-09-26T06:54:28.449Z,808
2017-09-26T06:55:29.843Z,816
2017-09-26T06:56:31.236Z,828
2017-09-26T06:57:32.631Z,840
2017-09-26T06:58:34.023Z,856
2017-09-26T06:59:35.418Z,868
2017-09-26T07:00:36.806Z,876
2017-09-26T07:01:38.201Z,880
2017-09-26T07:02:39.591Z,880
2017-09-26T07:03:40.983Z,884
2017-09-26T07:04:42.377Z,892
2017-09-26T07:05:43.772Z,900
2017-09-26T07:06:45.169Z,904
2017-09-26T07:07:46.562Z,908
2017-09-26T07:08:47.996Z,904
2017-09-26T07:09:49.386Z,908
2017-09-26T07:10:50.786Z,916
2017-09-26T07:11:52.178Z,928
2017-09-26T07:12:53.576Z,940
2017-09-26T07:13:54.971Z,956
2017-09-26T07:14:56.363Z,976
2017-09-26T07:15:57.751Z,1000
2017-09-26T07:16:59.144Z,1024
2017-09-26T07:18:00.537Z,1040
2017-09-26T07:19:01.932Z,1044
2017-09-26T07:20:03.329Z,1052
2017-09-26T07:21:04.726Z,1060
2017-09-26T07:22:06.117Z,1068
2017-09-26T07:23:07.512Z,1076
2017-09-26T07:24:08.906Z,1088
2017-09-26T07:25:10.298Z,1104
2017-09-26T07:26:11.692Z,1120
2017-09-26T07:27:13.089Z,1136
2017-09-26T07:28:14.487Z,1148
2017-09-26T07:29:15.880Z,1160
2017-09-26T07:30:17.271Z,1180
2017-09-26T07:31:18.667Z,1204
2017-09-26T07:32:20.062Z,1216
2017-09-26T07:33:21.458Z,1248
2017-09-26T07:34:22.856Z,1288
2017-09-26T07:35:24.970Z,1328
2017-09-26T07:36:26.370Z,1372
2017-09-26T07:37:27.759Z,1432
2017-09-26T07:38:29.150Z,1488
2017-09-26T07:39:30.547Z,1536
2017-09-26T07:40:31.939Z,1576
2017-09-26T07:41:33.336Z,1624
2017-09-26T07:42:34.733Z,1668
2017-09-26T07:43:36.125Z,1716
2017-09-26T07:44:37.520Z,1776
2017-09-26T07:45:38.912Z,1844
2017-09-26T07:46:40.308Z,1908
2017-09-26T07:47:41.703Z,1980
2017-09-26T07:48:43.132Z,2044
2017-09-26T07:49:44.494Z,2112
2017-09-26T07:50:45.890Z,2196
2017-09-26T07:51:47.282Z,2280
2017-09-26T07:52:48.677Z,2372
2017-09-26T07:53:50.074Z,2460
2017-09-26T07:54:51.470Z,2564
2017-09-26T07:55:52.869Z,2668
2017-09-26T07:56:54.266Z,2764
2017-09-26T07:57:55.660Z,2852
2017-09-26T07:58:57.057Z,2940
2017-09-26T07:59:58.452Z,3040
2017-09-26T08:00:59.849Z,3116
2017-09-26T08:02:01.243Z,3180
2017-09-26T08:03:02.640Z,3244
2017-09-26T08:04:04.039Z,3268
2017-09-26T08:05:05.428Z,3300
2017-09-26T08:06:06.824Z,3336
2017-09-26T08:07:08.218Z,3352
2017-09-26T08:08:09.615Z,3356
2017-09-26T08:09:11.030Z,3372
2017-09-26T08:10:12.426Z,3372
2017-09-26T08:11:13.824Z,3344
2017-09-26T08:12:15.217Z,3328
2017-09-26T08:13:16.614Z,3320
2017-09-26T08:14:18.014Z,3288
2017-09-26T08:15:19.415Z,3256
2017-09-26T08:16:20.808Z,3212
2017-09-26T08:17:22.209Z,3176
2017-09-26T08:18:23.603Z,3164
2017-09-26T08:19:24.998Z,3160
2017-09-26T08:20:26.392Z,3160
2017-09-26T08:21:27.785Z,3144
2017-09-26T08:22:29.184Z,3116
2017-09-26T08:23:30.579Z,3148
2017-09-26T08:24:31.976Z,3156
2017-09-26T08:25:33.373Z,3200
2017-09-26T08:26:34.776Z,3276
2017-09-26T08:27:36.166Z,3368
2017-09-26T08:28:37.559Z,3380
2017-09-26T08:29:38.957Z,3440
2017-09-26T08:30:40.358Z,3516
2017-09-26T08:31:41.752Z,3596
2017-09-26T08:32:43.152Z,3720
2017-09-26T08:33:44.550Z,3860
2017-09-26T08:34:45.945Z,3956
2017-09-26T08:35:47.341Z,3956
2017-09-26T08:36:48.738Z,3884
2017-09-26T08:37:50.133Z,3820
2017-09-26T08:38:51.530Z,3792
2017-09-26T08:39:52.926Z,3864
2017-09-26T08:40:54.325Z,3856
2017-09-26T08:41:55.727Z,3908
2017-09-26T08:42:57.120Z,4016
2017-09-26T08:43:58.512Z,4104
2017-09-26T08:44:59.910Z,4288
2017-09-26T08:46:01.337Z,4424
2017-09-26T08:47:02.737Z,4612
2017-09-26T08:48:04.135Z,4780
2017-09-26T08:49:05.532Z,4864
2017-09-26T08:50:06.929Z,4968
2017-09-26T08:51:08.325Z,4988
2017-09-26T08:52:09.720Z,4964
2017-09-26T08:53:11.118Z,4948
2017-09-26T08:54:12.516Z,4896
2017-09-26T08:55:13.912Z,4836
2017-09-26T08:56:15.309Z,4796
2017-09-26T08:57:16.701Z,4732
2017-09-26T08:58:18.099Z,4604
2017-09-26T08:59:19.495Z,4516
2017-09-26T09:00:20.894Z,4440
2017-09-26T09:01:22.294Z,4352
2017-09-26T09:02:23.689Z,4292
2017-09-26T09:03:25.085Z,4228
2017-09-26T09:04:26.486Z,4244
2017-09-26T09:05:27.883Z,4260
2017-09-26T09:06:29.281Z,4324
2017-09-26T09:07:30.677Z,4468
2017-09-26T09:08:32.076Z,4584
2017-09-26T09:09:33.472Z,4712
2017-09-26T09:10:34.867Z,4988
2017-09-26T09:11:36.263Z,5744
2017-09-26T09:12:37.659Z,7244
2017-09-26T09:13:39.058Z,6648
2017-09-26T09:14:40.453Z,6544
2017-09-26T09:15:41.853Z,6492
2017-09-26T09:16:43.252Z,6536
2017-09-26T09:17:44.650Z,6244
2017-09-26T09:18:46.044Z,6280
2017-09-26T09:19:47.442Z,6408
2017-09-26T09:20:48.838Z,6656
2017-09-26T09:21:50.235Z,6824
2017-09-26T09:22:51.633Z,7504
2017-09-26T09:23:53.059Z,7264
2017-09-26T09:24:54.429Z,7180
2017-09-26T09:25:55.826Z,6840
2017-09-26T09:26:57.223Z,6476
2017-09-26T09:27:58.646Z,6276
2017-09-26T09:29:00.058Z,6296
2017-09-26T09:30:01.450Z,7040
2017-09-26T09:31:02.851Z,6876
2017-09-26T09:32:04.246Z,6568
2017-09-26T09:33:05.643Z,5972
2017-09-26T09:34:07.041Z,5828
2017-09-26T09:35:08.442Z,5848
2017-09-26T09:36:09.843Z,6144
2017-09-26T09:37:11.244Z,6884
2017-09-26T09:38:12.639Z,6640
2017-09-26T09:39:14.038Z,6616
2017-09-26T09:40:15.435Z,6988
2017-09-26T09:41:16.832Z,6248
2017-09-26T09:42:18.233Z,6064
2017-09-26T09:43:19.633Z,6108
2017-09-26T09:44:21.034Z,6100
2017-09-26T09:45:22.430Z,6324
2017-09-26T09:46:23.829Z,6104
2017-09-26T09:47:25.255Z,5552
2017-09-26T09:48:26.625Z,5260
2017-09-26T09:49:28.020Z,5052
2017-09-26T09:50:29.421Z,4964
2017-09-26T09:51:30.820Z,4968
2017-09-26T09:52:32.217Z,4964
2017-09-26T09:53:33.616Z,4960
2017-09-26T09:54:35.013Z,4916
2017-09-26T09:55:36.411Z,4848
2017-09-26T09:56:37.813Z,4724
2017-09-26T09:57:39.211Z,4688
2017-09-26T09:58:40.610Z,4660
2017-09-26T09:59:42.004Z,4728
2017-09-26T10:00:43.399Z,5020
2017-09-26T10:01:44.795Z,4744
2017-09-26T10:02:46.193Z,4680
2017-09-26T10:03:47.591Z,4608
2017-09-26T10:04:48.990Z,4520
2017-09-26T10:05:50.387Z,4452
2017-09-26T10:06:51.784Z,4428
2017-09-26T10:07:53.180Z,4424
2017-09-26T10:08:54.580Z,4424
2017-09-26T10:09:55.982Z,4428
2017-09-26T10:10:57.380Z,4432
2017-09-26T10:11:58.778Z,4456
2017-09-26T10:13:00.177Z,4492
2017-09-26T10:14:01.579Z,4532
2017-09-26T10:15:02.976Z,4564
2017-09-26T10:16:04.374Z,4548
2017-09-26T10:17:05.772Z,4492
2017-09-26T10:18:07.170Z,4448
2017-09-26T10:19:08.567Z,4396
2017-09-26T10:20:09.968Z,4340
2017-09-26T10:21:11.361Z,4288
2017-09-26T10:22:12.760Z,4204
2017-09-26T10:23:14.161Z,4116
2017-09-26T10:24:15.559Z,4028
2017-09-26T10:25:16.960Z,3948
2017-09-26T10:26:18.359Z,3884
2017-09-26T10:27:19.757Z,3828
2017-09-26T10:28:21.153Z,3772
2017-09-26T10:29:22.547Z,3708
2017-09-26T10:30:23.944Z,3656
2017-09-26T10:31:25.344Z,3588
2017-09-26T10:32:26.741Z,3520
2017-09-26T10:33:28.140Z,3512
2017-09-26T10:34:29.536Z,3516
2017-09-26T10:35:30.937Z,3524
2017-09-26T10:36:32.334Z,3560
2017-09-26T10:37:33.730Z,3628
2017-09-26T10:38:35.128Z,3732
2017-09-26T10:39:36.525Z,3852
2017-09-26T10:40:37.926Z,3960
2017-09-26T10:41:39.327Z,4116
2017-09-26T10:42:40.723Z,4340
2017-09-26T10:43:42.121Z,4612
2017-09-26T10:44:43.518Z,4900
2017-09-26T10:45:44.919Z,5196
2017-09-26T10:46:46.317Z,5540
2017-09-26T10:47:47.716Z,5920
2017-09-26T10:48:49.114Z,6436
2017-09-26T10:49:50.509Z,6612
2017-09-26T10:50:51.905Z,6832
2017-09-26T10:51:53.301Z,7032
2017-09-26T10:52:54.698Z,7196
2017-09-26T10:53:56.095Z,7432
2017-09-26T10:54:57.496Z,7572
2017-09-26T10:55:58.898Z,7600
2017-09-26T10:57:00.295Z,7828
2017-09-26T10:58:01.696Z,7260
2017-09-26T10:59:03.086Z,7092
2017-09-26T11:00:04.487Z,7064
2017-09-26T11:01:05.883Z,7160
2017-09-26T11:02:07.285Z,7560
2017-09-26T11:03:08.684Z,8292
2017-09-26T11:04:10.082Z,10060
2017-09-26T11:05:11.478Z,9640
2017-09-26T11:06:12.878Z,11168
2017-09-26T11:07:14.278Z,10664
2017-09-26T11:08:15.675Z,11892
2017-09-26T11:09:17.076Z,10668
2017-09-26T11:10:18.477Z,10992
2017-09-26T11:11:19.878Z,13424
2017-09-26T11:12:21.273Z,11752
2017-09-26T11:13:22.673Z,10876
2017-09-26T11:14:24.077Z,10868
2017-09-26T11:15:25.509Z,17504
2017-09-26T11:16:26.875Z,10844
2017-09-26T11:17:28.275Z,11456
2017-09-26T11:18:29.672Z,11120
2017-09-26T11:19:31.073Z,16096
2017-09-26T11:20:32.474Z,13724
2017-09-26T11:21:33.873Z,18784
2017-09-26T11:22:35.274Z,21664
2017-09-26T11:23:36.677Z,20800
2017-09-26T11:24:38.081Z,20128
2017-09-26T11:25:39.481Z,16704
2017-09-26T11:26:40.881Z,13324
2017-09-26T11:27:42.280Z,17280
2017-09-26T11:28:43.685Z,19552
2017-09-26T11:29:45.081Z,11088
2017-09-26T11:30:46.484Z,18624
2017-09-26T11:31:47.888Z,19552
2017-09-26T11:32:49.290Z,20224
2017-09-26T11:33:50.692Z,18784
2017-09-26T11:34:52.092Z,19328
2017-09-26T11:35:53.494Z,18912
2017-09-26T11:36:54.896Z,18464
2017-09-26T11:37:56.295Z,18560
2017-09-26T11:38:57.696Z,17984
2017-09-26T11:39:59.097Z,18400
2017-09-26T11:41:00.497Z,18656
2017-09-26T11:42:01.899Z,18560
2017-09-26T11:43:03.299Z,18592
2017-09-26T11:44:04.702Z,18464
2017-09-26T11:45:06.102Z,18240
2017-09-26T11:46:07.505Z,18016
2017-09-26T11:47:08.905Z,18048
2017-09-26T11:48:10.306Z,18304
2017-09-26T11:49:11.707Z,10216
2017-09-26T11:50:13.107Z,9528
2017-09-26T11:51:14.510Z,15024
2017-09-26T11:52:15.913Z,18112
2017-09-26T11:53:17.315Z,18240
2017-09-26T11:54:18.716Z,18368
2017-09-26T11:55:20.119Z,14380
2017-09-26T11:56:21.522Z,17952
2017-09-26T11:57:22.921Z,15808
2017-09-26T11:58:24.325Z,18592
2017-09-26T11:59:25.728Z,13588
2017-09-26T12:00:27.135Z,17600
2017-09-26T12:01:28.532Z,16640
2017-09-26T12:02:29.977Z,13372
2017-09-26T12:03:31.377Z,13900
2017-09-26T12:04:32.786Z,16000
2017-09-26T12:05:34.181Z,12672
2017-09-26T12:06:35.583Z,8260
2017-09-26T12:07:36.990Z,14312
2017-09-26T12:08:38.390Z,14316
2017-09-26T12:09:39.790Z,12036
2017-09-26T12:10:41.191Z,18016
2017-09-26T12:11:42.599Z,18368
2017-09-26T12:12:43.997Z,17376
2017-09-26T12:13:45.399Z,17216
2017-09-26T12:14:46.805Z,17696
2017-09-26T12:15:48.208Z,16640
2017-09-26T12:16:49.609Z,16512
2017-09-26T12:17:52.403Z,16832
2017-09-26T12:18:53.807Z,16640
2017-09-26T12:19:55.210Z,17184
2017-09-26T12:20:56.614Z,16544
2017-09-26T12:21:58.025Z,17504
2017-09-26T12:22:59.421Z,16032
2017-09-26T12:24:00.821Z,14508
2017-09-26T12:25:02.223Z,11420
2017-09-26T12:26:03.630Z,12704
2017-09-26T12:27:05.029Z,14024
2017-09-26T12:28:06.432Z,13624
2017-09-26T12:29:07.838Z,15200
2017-09-26T12:30:09.243Z,15680
2017-09-26T12:31:10.640Z,15072
2017-09-26T12:32:12.050Z,15456
2017-09-26T12:33:13.453Z,14496
2017-09-26T12:34:14.854Z,9108
2017-09-26T12:35:16.257Z,6760
2017-09-26T12:36:17.660Z,5892
2017-09-26T12:37:19.062Z,5168
2017-09-26T12:38:20.465Z,4672
2017-09-26T12:39:21.867Z,4396
2017-09-26T12:40:23.269Z,4184
2017-09-26T12:41:24.670Z,4004
2017-09-26T12:42:26.072Z,3784
2017-09-26T12:43:27.475Z,3544
2017-09-26T12:44:28.877Z,3348
2017-09-26T12:45:30.285Z,3300
2017-09-26T12:46:31.687Z,3304
2017-09-26T12:47:33.089Z,3264
2017-09-26T12:48:34.492Z,3228
2017-09-26T12:49:35.900Z,3264
2017-09-26T12:50:37.302Z,3344
2017-09-26T12:51:38.705Z,3488
2017-09-26T12:52:40.101Z,3756
2017-09-26T12:53:41.500Z,4096
2017-09-26T12:54:42.903Z,4348
2017-09-26T12:55:44.314Z,4584
2017-09-26T12:56:45.718Z,4752
2017-09-26T12:57:47.120Z,4792
2017-09-26T12:58:48.518Z,4764
2017-09-26T12:59:49.932Z,4632
2017-09-26T13:00:51.330Z,4556
2017-09-26T13:01:52.729Z,4524
2017-09-26T13:02:54.129Z,4568
2017-09-26T13:03:55.532Z,4692
2017-09-26T13:04:56.932Z,4832
2017-09-26T13:05:58.330Z,4964
2017-09-26T13:06:59.732Z,5008
2017-09-26T13:08:01.129Z,5084
2017-09-26T13:09:02.551Z,5208
2017-09-26T13:10:03.951Z,5380
2017-09-26T13:11:05.352Z,5496
2017-09-26T13:12:06.754Z,5388
2017-09-26T13:13:08.155Z,5172
2017-09-26T13:14:09.555Z,4892
2017-09-26T13:15:10.953Z,4692
2017-09-26T13:16:12.353Z,4564
2017-09-26T13:17:13.755Z,4480
2017-09-26T13:18:15.154Z,4556
2017-09-26T13:19:16.556Z,4744
2017-09-26T13:20:17.956Z,4916
2017-09-26T13:21:19.359Z,4696
2017-09-26T13:22:20.760Z,4940
2017-09-26T13:23:22.157Z,8568
2017-09-26T13:24:23.557Z,7904
2017-09-26T13:25:24.958Z,10612
2017-09-26T13:26:26.362Z,10444
2017-09-26T13:27:27.767Z,9860
2017-09-26T13:28:29.169Z,9124
2017-09-26T13:29:30.565Z,8912
2017-09-26T13:30:31.964Z,7408
2017-09-26T13:31:33.362Z,9052
2017-09-26T13:32:34.767Z,11136
2017-09-26T13:33:36.168Z,11068
2017-09-26T13:34:37.568Z,10932
2017-09-26T13:35:38.965Z,10828
2017-09-26T13:36:40.371Z,10712
2017-09-26T13:37:41.819Z,10664
2017-09-26T13:38:43.219Z,10616
2017-09-26T13:39:44.621Z,10488
2017-09-26T13:40:46.024Z,10288
2017-09-26T13:41:47.427Z,10084
2017-09-26T13:42:48.825Z,9848
2017-09-26T13:43:50.226Z,9608
2017-09-26T13:44:51.623Z,7872
2017-09-26T13:45:53.023Z,3920
2017-09-26T13:46:54.431Z,3768
2017-09-26T13:47:55.825Z,4752
2017-09-26T13:48:57.224Z,9080
2017-09-26T13:49:58.622Z,9524
2017-09-26T13:51:00.027Z,9420
2017-09-26T13:52:01.427Z,9320
2017-09-26T13:53:02.832Z,9060
2017-09-26T13:54:04.230Z,6352
2017-09-26T13:55:05.633Z,5544
2017-09-26T13:56:07.032Z,8312
2017-09-26T13:57:08.433Z,8880
2017-09-26T13:58:09.829Z,8832
2017-09-26T13:59:11.227Z,8804
2017-09-26T14:00:12.631Z,8744
2017-09-26T14:01:14.032Z,8648
2017-09-26T14:02:15.433Z,8460
2017-09-26T14:03:16.832Z,7916
2017-09-26T14:04:18.238Z,8096
2017-09-26T14:05:19.633Z,8180
2017-09-26T14:06:21.037Z,8140
2017-09-26T14:07:22.441Z,8100
2017-09-26T14:08:23.842Z,8044
2017-09-26T14:09:25.243Z,8040
2017-09-26T14:10:26.643Z,8016